메인 페이지
METAR-TAF:

METAR-TAF

공항 :

본리키 국제공항

타라와, 키리바시

위도: 01-21N, 경도: 172-55E, 고도: 2m

현재 날씨관측

예보는 55분 전, 20:00시(UTC)에 발표되었습니다.
여러 방향의 바람 2kt
온도 28°C
습도 79%
기압 1011 hPa
시정 10km 이상
고도 2000ft 상공 구름 보통

METAR: NGTA 202000Z VRB02KT 9999 SCT020 28/24 Q1011

시각: 10:55 (20:55 UTC)

예보

예보는 3 시간 51분 전, 17:04시(UTC)에 발표되었습니다.
예보 대상 시간: 20일 18시부터 21일 18시까지 (UTC)
남동6kt
시정 10km 이상
고도 1900ft 상공 구름 조금

TAF: NGTA 201704Z 2018/2118 14006KT 9999 FEW019

4,000개 이상의 공항 관측 자료 및 예보 (METAR 및 TAF 보고).

지도상에서 검색 가능한 기상관측소가 노란 점과 빨간 점으로 표시되어 있습니다.

기상관측소 명을 보려면 표시 위로 마우스를 이동하세요.

날씨 관측과 예보를 보려면 클릭하세요.

지도 변경 : 확대하려면 엑스 표시가 있는 녹색 버튼, 축소하려면 빼기 표시가 있는 녹색 버튼, 다음 페이지의 지도를 보려면 녹색 화살표를 클릭하세요.


METAR-TAF: